Archer, Illinois
Current Conditions -  °F | °C
As of 9:52 AM on Thursday 23 Oct 2014 (Local Time) from KSPI Reporting Station
Clear Clear  
Wind Chill: 51°   Ceiling: Unl
Heat Index: 51°   Visibility: 10mi
Dew Point: 42°   Wind: 9mph
Humidity: 71%   Direction: 190°S
Pressure: 30.22"   Gusts: NA
Location:  39.854°N, 89.6295°W
Report Text: KSPI 231452Z 19008KT 10SM CLR 11/06 A3022 RMK AO2 SLP235 T01060056 51005
Loading
Personal Weather Stations






























Interactive Weather Map
Tropical Storm Tracking
New forecast layout! Learn more

10-Day Weather Forecast

Advertisements
Track Severe Weather on mobile